createdAt,value
2023-03-05T00:01:08.819Z,98219.34
2023-03-05T00:03:42.497Z,98209.16
2023-03-05T00:06:14.333Z,98208.34
2023-03-05T00:08:44.110Z,98208.28
2023-03-05T00:11:15.248Z,98213.41
2023-03-05T00:13:44.916Z,98209.16
2023-03-05T00:16:21.958Z,98209.16
2023-03-05T00:18:51.344Z,98206.66
2023-03-05T00:21:25.555Z,98203.25
2023-03-05T00:23:56.455Z,98204.19
2023-03-05T00:26:27.497Z,98201.63
2023-03-05T00:29:01.799Z,98197.41
2023-03-05T00:31:34.817Z,98188.91
2023-03-05T00:34:05.861Z,98204.19
2023-03-05T00:36:38.631Z,98191.56
2023-03-05T00:39:08.925Z,98189.88
2023-03-05T00:41:38.137Z,98179.59
2023-03-05T00:44:08.737Z,98187.31
2023-03-05T00:46:38.415Z,98182.22
2023-03-05T00:49:09.885Z,98180.50
2023-03-05T00:51:41.995Z,98188.13
2023-03-05T00:54:11.505Z,98191.50
2023-03-05T00:56:42.095Z,98190.66
2023-03-05T00:59:23.463Z,98194.03
2023-03-05T01:01:55.553Z,98188.91
2023-03-05T01:04:27.125Z,98190.59
2023-03-05T01:06:59.655Z,98185.53
2023-03-05T01:09:32.470Z,98179.63
2023-03-05T01:12:02.459Z,98177.09
2023-03-05T01:14:36.422Z,98176.28
2023-03-05T01:17:16.879Z,98167.00
2023-03-05T01:19:47.560Z,98171.25
2023-03-05T01:22:19.481Z,98177.13
2023-03-05T01:24:48.515Z,98164.44
2023-03-05T01:27:28.390Z,98168.63
2023-03-05T01:29:58.678Z,98165.28
2023-03-05T01:32:33.628Z,98142.34
2023-03-05T01:35:07.435Z,98159.31
2023-03-05T01:37:38.457Z,98162.72
2023-03-05T01:40:08.218Z,98156.78
2023-03-05T01:42:38.371Z,98139.81
2023-03-05T01:45:10.240Z,98163.59
2023-03-05T01:47:39.867Z,98157.66
2023-03-05T01:50:13.520Z,98152.59
2023-03-05T01:52:52.005Z,98150.03
2023-03-05T01:55:24.686Z,98146.63
2023-03-05T01:57:58.148Z,98133.84
2023-03-05T02:00:32.299Z,98140.72
2023-03-05T02:03:06.765Z,98150.88
2023-03-05T02:05:38.263Z,98131.34
2023-03-05T02:08:10.405Z,98138.16
2023-03-05T02:10:41.803Z,98133.03
2023-03-05T02:13:13.973Z,98137.31
2023-03-05T02:15:43.523Z,98131.38
2023-03-05T02:18:12.909Z,98122.09
2023-03-05T02:20:50.691Z,98127.16
2023-03-05T02:23:23.069Z,98126.28
2023-03-05T02:25:52.702Z,98119.53
2023-03-05T02:28:27.086Z,98119.53
2023-03-05T02:30:56.907Z,98111.91
2023-03-05T02:33:26.554Z,98102.56
2023-03-05T02:35:55.656Z,98104.22
2023-03-05T02:38:26.868Z,98103.44
2023-03-05T02:41:05.513Z,98106.81
2023-03-05T02:43:34.786Z,98092.41
2023-03-05T02:46:04.349Z,98094.94
2023-03-05T02:48:33.733Z,98095.78
2023-03-05T02:51:03.438Z,98094.09
2023-03-05T02:53:33.659Z,98095.78
2023-03-05T02:56:09.935Z,98083.09
2023-03-05T02:58:38.154Z,98088.13
2023-03-05T03:01:07.182Z,98072.09
2023-03-05T03:03:37.046Z,98055.16
2023-03-05T03:06:06.174Z,98069.53
2023-03-05T03:08:36.137Z,98081.38
2023-03-05T03:11:10.512Z,98063.59
2023-03-05T03:13:39.190Z,98072.09
2023-03-05T03:16:10.225Z,98072.09
2023-03-05T03:18:38.828Z,98068.72
2023-03-05T03:21:08.994Z,98072.06
2023-03-05T03:23:40.561Z,98066.16
2023-03-05T03:26:08.869Z,98067.00
2023-03-05T03:28:37.945Z,98061.09
2023-03-05T03:31:06.772Z,98046.72
2023-03-05T03:33:35.493Z,98054.31
2023-03-05T03:36:05.096Z,98054.31
2023-03-05T03:38:34.422Z,98056.00
2023-03-05T03:41:07.009Z,98049.19
2023-03-05T03:43:35.979Z,98055.16
2023-03-05T03:46:06.306Z,98056.84
2023-03-05T03:48:36.253Z,98061.94
2023-03-05T03:51:07.952Z,98043.25
2023-03-05T03:53:36.692Z,98046.69
2023-03-05T03:56:07.924Z,98050.13
2023-03-05T03:58:36.970Z,98050.09
2023-03-05T04:01:05.558Z,98039.94
2023-03-05T04:03:35.190Z,98043.28
2023-03-05T04:06:06.095Z,98039.06
2023-03-05T04:08:35.128Z,98044.16
2023-03-05T04:11:04.400Z,98038.28
2023-03-05T04:13:34.967Z,98036.56
2023-03-05T04:16:03.915Z,98036.50
2023-03-05T04:18:32.671Z,98023.78
2023-03-05T04:21:01.413Z,98023.84
2023-03-05T04:23:29.795Z,98025.53
2023-03-05T04:25:58.284Z,98018.72
2023-03-05T04:28:28.065Z,98032.31
2023-03-05T04:30:58.036Z,98011.13
2023-03-05T04:33:26.781Z,98021.34
2023-03-05T04:35:55.700Z,98010.31
2023-03-05T04:38:24.482Z,98003.47
2023-03-05T04:40:53.619Z,98019.59
2023-03-05T04:43:22.535Z,98016.16
2023-03-05T04:45:51.484Z,98023.00
2023-03-05T04:48:21.559Z,98015.38
2023-03-05T04:50:50.334Z,98015.38
2023-03-05T04:53:18.949Z,98010.25
2023-03-05T04:55:47.587Z,98010.31
2023-03-05T04:58:16.236Z,98012.84
2023-03-05T05:00:45.506Z,98010.28
2023-03-05T05:03:14.475Z,97989.94
2023-03-05T05:05:44.593Z,98010.28
2023-03-05T05:08:14.947Z,98010.31
2023-03-05T05:10:43.535Z,97993.31
2023-03-05T05:13:12.008Z,97993.38
2023-03-05T05:15:42.786Z,97995.09
2023-03-05T05:18:11.388Z,97985.75
2023-03-05T05:20:41.067Z,97992.53
2023-03-05T05:23:11.186Z,97996.75
2023-03-05T05:25:40.118Z,97995.91
2023-03-05T05:28:09.359Z,97989.16
2023-03-05T05:30:37.690Z,98002.69
2023-03-05T05:33:05.991Z,98001.81
2023-03-05T05:35:34.774Z,97992.47
2023-03-05T05:38:03.683Z,97995.91
2023-03-05T05:40:33.710Z,98006.06
2023-03-05T05:43:02.654Z,97995.06
2023-03-05T05:45:31.583Z,97990.78
2023-03-05T05:48:00.125Z,97997.63
2023-03-05T05:50:29.145Z,97989.13
2023-03-05T05:52:58.485Z,98000.97
2023-03-05T05:55:27.256Z,97994.19
2023-03-05T05:57:58.563Z,98007.75
2023-03-05T06:00:27.592Z,98005.16
2023-03-05T06:02:57.040Z,98002.66
2023-03-05T06:05:26.447Z,98003.47
2023-03-05T06:07:55.135Z,98002.66
2023-03-05T06:10:24.102Z,98004.34
2023-03-05T06:12:53.341Z,98002.66
2023-03-05T06:15:23.760Z,98000.97
2023-03-05T06:17:53.699Z,98005.19
2023-03-05T06:20:23.403Z,97992.47
2023-03-05T06:22:52.599Z,97997.59
2023-03-05T06:25:21.566Z,98002.66
2023-03-05T06:27:50.017Z,98006.88
2023-03-05T06:30:19.067Z,97989.97
2023-03-05T06:32:49.785Z,98008.59
2023-03-05T06:35:18.653Z,98000.19
2023-03-05T06:37:47.594Z,98004.41
2023-03-05T06:40:16.860Z,97997.69
2023-03-05T06:42:45.796Z,97993.47
2023-03-05T06:45:14.752Z,97990.09
2023-03-05T06:47:43.755Z,98008.69
2023-03-05T06:50:14.833Z,97997.72
2023-03-05T06:52:43.742Z,97996.03
2023-03-05T06:55:12.776Z,97998.59
2023-03-05T06:57:42.168Z,98000.22
2023-03-05T07:00:12.977Z,98003.63
2023-03-05T07:02:42.148Z,97996.81
2023-03-05T07:05:11.176Z,97997.66
2023-03-05T07:07:41.424Z,98001.03
2023-03-05T07:10:11.225Z,97996.78
2023-03-05T07:12:40.519Z,98009.50
2023-03-05T07:15:11.135Z,97994.22
2023-03-05T07:17:40.208Z,97995.06
2023-03-05T07:20:10.454Z,98000.97
2023-03-05T07:22:40.324Z,97997.59
2023-03-05T07:25:09.778Z,97994.22
2023-03-05T07:27:38.752Z,97985.78
2023-03-05T07:30:09.448Z,97997.63
2023-03-05T07:32:38.973Z,97997.69
2023-03-05T07:35:09.354Z,97983.34
2023-03-05T07:37:38.144Z,97972.38
2023-03-05T07:40:09.936Z,97990.22
2023-03-05T07:42:38.729Z,97985.16
2023-03-05T07:45:08.629Z,97992.78
2023-03-05T07:47:37.826Z,97984.34
2023-03-05T07:50:07.346Z,97985.19
2023-03-05T07:52:35.827Z,97985.16
2023-03-05T07:55:04.255Z,97972.50
2023-03-05T07:57:35.699Z,97988.63
2023-03-05T08:00:05.425Z,97976.78
2023-03-05T08:02:33.830Z,97982.66
2023-03-05T08:05:02.442Z,97983.53
2023-03-05T08:07:30.950Z,97971.66
2023-03-05T08:09:59.454Z,97975.06
2023-03-05T08:12:28.097Z,97975.94
2023-03-05T08:14:58.467Z,97977.59
2023-03-05T08:17:27.832Z,97969.16
2023-03-05T08:19:58.568Z,97961.53
2023-03-05T08:22:27.421Z,97975.91
2023-03-05T08:24:56.058Z,97969.13
2023-03-05T08:27:26.178Z,97967.47
2023-03-05T08:29:54.924Z,97968.31
2023-03-05T08:32:25.013Z,97969.16
2023-03-05T08:34:57.314Z,97965.75
2023-03-05T08:37:26.301Z,97952.22
2023-03-05T08:39:56.427Z,97962.38
2023-03-05T08:42:25.188Z,97964.06
2023-03-05T08:44:54.034Z,97958.97
2023-03-05T08:47:27.132Z,97944.56
2023-03-05T08:49:57.460Z,97959.78
2023-03-05T08:52:27.616Z,97963.19
2023-03-05T08:54:56.732Z,97964.03
2023-03-05T08:57:25.220Z,97960.66
2023-03-05T08:59:53.701Z,97965.72
2023-03-05T09:02:22.583Z,97957.25
2023-03-05T09:04:52.524Z,97958.97
2023-03-05T09:07:21.236Z,97962.31
2023-03-05T09:09:50.134Z,97954.75
2023-03-05T09:12:18.485Z,97955.56
2023-03-05T09:14:47.460Z,97949.66
2023-03-05T09:17:15.773Z,97952.19
2023-03-05T09:19:44.260Z,97937.78
2023-03-05T09:22:15.685Z,97944.56
2023-03-05T09:24:44.627Z,97943.66
2023-03-05T09:27:13.165Z,97936.06
2023-03-05T09:29:43.173Z,97931.84
2023-03-05T09:32:11.836Z,97929.31
2023-03-05T09:34:41.074Z,97936.94
2023-03-05T09:37:10.409Z,97939.50
2023-03-05T09:39:40.182Z,97932.72
2023-03-05T09:42:30.189Z,97936.94
2023-03-05T09:45:10.211Z,97931.88
2023-03-05T09:47:50.524Z,97924.22
2023-03-05T09:50:33.136Z,97920.84
2023-03-05T09:53:07.418Z,97922.53
2023-03-05T09:55:41.097Z,97931.84
2023-03-05T09:58:15.825Z,97931.00
2023-03-05T10:00:46.395Z,97928.44
2023-03-05T10:03:21.266Z,97935.19
2023-03-05T10:06:01.801Z,97925.91
2023-03-05T10:08:39.488Z,97923.34
2023-03-05T10:11:20.559Z,97927.59
2023-03-05T10:13:50.780Z,97921.66
2023-03-05T10:16:41.995Z,97932.63
2023-03-05T10:19:18.991Z,97921.56
2023-03-05T10:21:55.731Z,97933.41
2023-03-05T10:24:37.911Z,97926.63
2023-03-05T10:27:11.182Z,97919.88
2023-03-05T10:30:08.068Z,97919.88
2023-03-05T10:32:46.049Z,97911.47
2023-03-05T10:35:41.902Z,97916.59
2023-03-05T10:38:25.926Z,97906.44
2023-03-05T10:40:56.939Z,97903.88
2023-03-05T10:43:36.723Z,97903.00
2023-03-05T10:46:06.528Z,97903.03
2023-03-05T10:48:42.081Z,97891.22
2023-03-05T10:51:17.200Z,97884.44
2023-03-05T10:53:53.868Z,97889.50
2023-03-05T10:56:25.452Z,97887.81
2023-03-05T10:58:55.613Z,97884.41
2023-03-05T11:01:28.252Z,97871.72
2023-03-05T11:03:59.765Z,97875.09
2023-03-05T11:06:31.886Z,97873.41
2023-03-05T11:09:19.593Z,97869.16
2023-03-05T11:12:06.596Z,97865.72
2023-03-05T11:14:38.983Z,97859.78
2023-03-05T11:17:28.028Z,97863.06
2023-03-05T11:19:57.316Z,97852.81
2023-03-05T11:22:27.030Z,97847.00
2023-03-05T11:25:14.898Z,97852.16
2023-03-05T11:27:51.460Z,97855.56
2023-03-05T11:30:26.777Z,97837.81
2023-03-05T11:33:10.500Z,97836.94
2023-03-05T11:35:40.576Z,97838.66
2023-03-05T11:38:18.937Z,97841.22
2023-03-05T11:40:48.067Z,97828.50
2023-03-05T11:43:19.202Z,97819.94
2023-03-05T11:45:51.097Z,97822.47
2023-03-05T11:48:24.428Z,97825.03
2023-03-05T11:51:01.108Z,97815.59
2023-03-05T11:53:33.192Z,97813.91
2023-03-05T11:56:07.612Z,97816.44
2023-03-05T11:58:40.728Z,97804.66
2023-03-05T12:01:17.185Z,97806.38
2023-03-05T12:03:46.547Z,97809.84
2023-03-05T12:06:30.283Z,97796.28
2023-03-05T12:09:02.184Z,97798.03
2023-03-05T12:11:33.321Z,97796.31
2023-03-05T12:14:08.544Z,97796.28
2023-03-05T12:16:46.452Z,97786.13
2023-03-05T12:19:32.908Z,97792.91
2023-03-05T12:22:01.837Z,97779.34
2023-03-05T12:24:39.519Z,97774.31
2023-03-05T12:27:11.915Z,97774.28
2023-03-05T12:29:44.080Z,97774.25
2023-03-05T12:33:04.081Z,97769.13
2023-03-05T12:35:37.903Z,97758.88
2023-03-05T12:38:25.670Z,97758.78
2023-03-05T12:40:55.082Z,97751.16
2023-03-05T12:43:31.761Z,97748.56
2023-03-05T12:46:24.972Z,97746.09
2023-03-05T12:48:54.807Z,97734.25
2023-03-05T12:51:36.265Z,97740.97
2023-03-05T12:54:33.845Z,97737.66
2023-03-05T12:57:05.308Z,97736.00
2023-03-05T12:59:44.348Z,97733.34
2023-03-05T13:02:23.045Z,97718.00
2023-03-05T13:04:54.917Z,97730.69
2023-03-05T13:07:24.729Z,97726.50
2023-03-05T13:09:56.100Z,97718.91
2023-03-05T13:12:26.134Z,97727.44
2023-03-05T13:15:01.808Z,97727.50
2023-03-05T13:17:33.511Z,97725.78
2023-03-05T13:20:06.402Z,97719.88
2023-03-05T13:22:36.521Z,97725.03
2023-03-05T13:25:20.694Z,97717.44
2023-03-05T13:27:49.351Z,97719.09
2023-03-05T13:30:26.490Z,97716.47
2023-03-05T13:33:00.603Z,97719.88
2023-03-05T13:35:28.657Z,97716.53
2023-03-05T13:37:59.455Z,97714.75
2023-03-05T13:40:29.485Z,97715.56
2023-03-05T13:43:12.455Z,97711.25
2023-03-05T13:45:41.355Z,97706.94
2023-03-05T13:48:21.769Z,97700.06
2023-03-05T13:50:56.785Z,97693.31
2023-03-05T13:53:30.790Z,97695.75
2023-03-05T13:56:00.285Z,97685.59
2023-03-05T13:58:47.674Z,97689.91
2023-03-05T14:01:22.225Z,97690.00
2023-03-05T14:03:52.785Z,97685.88
2023-03-05T14:06:23.839Z,97678.25
2023-03-05T14:08:56.063Z,97679.84
2023-03-05T14:11:25.235Z,97680.78
2023-03-05T14:14:04.119Z,97670.59
2023-03-05T14:16:34.034Z,97668.78
2023-03-05T14:19:05.107Z,97663.69
2023-03-05T14:21:48.252Z,97662.88
2023-03-05T14:24:25.621Z,97656.97
2023-03-05T14:26:56.741Z,97658.69
2023-03-05T14:29:27.789Z,97657.00
2023-03-05T14:31:58.922Z,97658.75
2023-03-05T14:34:31.214Z,97648.59
2023-03-05T14:37:03.550Z,97640.19
2023-03-05T14:39:42.023Z,97650.25
2023-03-05T14:42:35.234Z,97650.25
2023-03-05T14:45:14.059Z,97639.34
2023-03-05T14:47:43.214Z,97639.28
2023-03-05T14:50:18.504Z,97641.84
2023-03-05T14:52:48.387Z,97633.22
2023-03-05T14:55:19.808Z,97625.69
2023-03-05T14:57:49.283Z,97638.28
2023-03-05T15:00:19.812Z,97632.41
2023-03-05T15:02:48.471Z,97630.81
2023-03-05T15:05:17.533Z,97620.75
2023-03-05T15:07:48.076Z,97625.84
2023-03-05T15:10:21.025Z,97619.00
2023-03-05T15:12:50.500Z,97613.97
2023-03-05T15:15:20.163Z,97615.69
2023-03-05T15:17:52.019Z,97608.91
2023-03-05T15:20:21.656Z,97602.91
2023-03-05T15:22:50.008Z,97611.34
2023-03-05T15:25:20.836Z,97597.81
2023-03-05T15:27:51.700Z,97590.16
2023-03-05T15:30:24.880Z,97596.97
2023-03-05T15:32:55.512Z,97580.00
2023-03-05T15:35:25.798Z,97591.03
2023-03-05T15:37:54.460Z,97577.47
2023-03-05T15:40:24.450Z,97579.19
2023-03-05T15:42:53.354Z,97580.03
2023-03-05T15:45:22.955Z,97565.69
2023-03-05T15:47:51.794Z,97572.50
2023-03-05T15:50:23.016Z,97570.81
2023-03-05T15:52:52.660Z,97566.56
2023-03-05T15:55:21.349Z,97566.63
2023-03-05T15:57:53.574Z,97559.81
2023-03-05T16:00:25.935Z,97567.50
2023-03-05T16:02:55.326Z,97556.47
2023-03-05T16:05:24.673Z,97562.41
2023-03-05T16:07:54.909Z,97553.03
2023-03-05T16:10:27.056Z,97553.13
2023-03-05T16:13:01.173Z,97551.41
2023-03-05T16:15:31.354Z,97540.47
2023-03-05T16:18:03.562Z,97547.22
2023-03-05T16:20:36.484Z,97548.06
2023-03-05T16:23:05.584Z,97537.91
2023-03-05T16:25:34.984Z,97538.75
2023-03-05T16:28:05.418Z,97534.53
2023-03-05T16:30:34.792Z,97543.00
2023-03-05T16:33:03.201Z,97530.31
2023-03-05T16:35:31.882Z,97530.34
2023-03-05T16:38:00.969Z,97536.22
2023-03-05T16:40:56.647Z,97529.47
2023-03-05T16:43:19.879Z,97520.25
2023-03-05T16:45:48.326Z,97523.56
2023-03-05T16:48:16.643Z,97517.69
2023-03-05T16:50:45.121Z,97522.78
2023-03-05T16:53:13.872Z,97506.75
2023-03-05T16:55:42.775Z,97527.03
2023-03-05T16:58:12.189Z,97516.03
2023-03-05T17:00:42.949Z,97516.94
2023-03-05T17:03:11.542Z,97523.66
2023-03-05T17:05:40.039Z,97520.28
2023-03-05T17:08:09.114Z,97528.75
2023-03-05T17:10:37.900Z,97527.06
2023-03-05T17:13:06.203Z,97529.63
2023-03-05T17:15:35.173Z,97527.94
2023-03-05T17:18:07.805Z,97524.56
2023-03-05T17:20:36.951Z,97517.78
2023-03-05T17:23:05.658Z,97519.47
2023-03-05T17:25:34.439Z,97502.59
2023-03-05T17:28:03.055Z,97515.22
2023-03-05T17:30:33.703Z,97513.50
2023-03-05T17:33:02.214Z,97522.91
2023-03-05T17:35:32.811Z,97511.84
2023-03-05T17:38:03.404Z,97516.94
2023-03-05T17:40:32.512Z,97520.34
2023-03-05T17:43:00.917Z,97517.03
2023-03-05T17:45:29.425Z,97517.03
2023-03-05T17:47:59.749Z,97510.28
2023-03-05T17:50:28.298Z,97512.78
2023-03-05T17:52:58.219Z,97519.56
2023-03-05T17:55:29.523Z,97517.03
2023-03-05T17:57:58.573Z,97505.22
2023-03-05T18:00:29.703Z,97511.13
2023-03-05T18:03:00.905Z,97519.56
2023-03-05T18:05:30.184Z,97520.44
2023-03-05T18:08:01.006Z,97519.59
2023-03-05T18:10:31.162Z,97517.09
2023-03-05T18:13:00.475Z,97516.22
2023-03-05T18:15:31.039Z,97512.00
2023-03-05T18:18:00.405Z,97506.94
2023-03-05T18:20:33.278Z,97518.72
2023-03-05T18:23:12.300Z,97502.69
2023-03-05T18:25:40.967Z,97506.91
2023-03-05T18:28:10.849Z,97508.59
2023-03-05T18:30:40.792Z,97501.88
2023-03-05T18:33:10.464Z,97510.31
2023-03-05T18:35:39.054Z,97513.69
2023-03-05T18:38:09.377Z,97504.38
2023-03-05T18:40:38.077Z,97501.03
2023-03-05T18:43:06.454Z,97502.72
2023-03-05T18:45:35.402Z,97496.81
2023-03-05T18:48:03.916Z,97495.09
2023-03-05T18:50:32.424Z,97491.72
2023-03-05T18:53:01.119Z,97496.81
2023-03-05T18:55:32.105Z,97492.53
2023-03-05T18:58:00.725Z,97494.25
2023-03-05T19:00:32.292Z,97488.38
2023-03-05T19:03:02.701Z,97496.81
2023-03-05T19:05:32.434Z,97497.66
2023-03-05T19:08:02.576Z,97490.88
2023-03-05T19:10:33.801Z,97495.97
2023-03-05T19:13:15.898Z,97483.31
2023-03-05T19:15:44.952Z,97495.13
2023-03-05T19:18:13.914Z,97494.31
2023-03-05T19:20:42.782Z,97474.03
2023-03-05T19:23:11.469Z,97474.00
2023-03-05T19:25:43.249Z,97488.41
2023-03-05T19:28:12.230Z,97479.91
2023-03-05T19:30:40.781Z,97480.78
2023-03-05T19:33:09.406Z,97480.75
2023-03-05T19:35:37.946Z,97478.25
2023-03-05T19:38:06.681Z,97474.03
2023-03-05T19:40:35.666Z,97474.88
2023-03-05T19:43:05.821Z,97482.50
2023-03-05T19:45:34.886Z,97477.44
2023-03-05T19:48:03.578Z,97477.41
2023-03-05T19:50:34.472Z,97479.97
2023-03-05T19:53:02.967Z,97481.66
2023-03-05T19:55:32.046Z,97461.38
2023-03-05T19:58:01.958Z,97467.28
2023-03-05T20:00:32.267Z,97469.78
2023-03-05T20:03:01.083Z,97474.03
2023-03-05T20:05:29.566Z,97459.69
2023-03-05T20:07:58.157Z,97468.97
2023-03-05T20:10:26.421Z,97457.97
2023-03-05T20:12:55.128Z,97456.28
2023-03-05T20:15:29.339Z,97460.50
2023-03-05T20:17:59.858Z,97450.31
2023-03-05T20:20:31.226Z,97458.81
2023-03-05T20:23:00.421Z,97444.44
2023-03-05T20:25:28.899Z,97455.41
2023-03-05T20:27:57.347Z,97461.34
2023-03-05T20:30:25.801Z,97457.97
2023-03-05T20:32:54.159Z,97458.81
2023-03-05T20:35:24.294Z,97448.66
2023-03-05T20:38:13.065Z,97453.75
2023-03-05T20:40:41.315Z,97434.34
2023-03-05T20:43:09.774Z,97444.47
2023-03-05T20:45:38.176Z,97442.78
2023-03-05T20:48:06.963Z,97437.72
2023-03-05T20:50:37.404Z,97432.66
2023-03-05T20:53:06.389Z,97435.19
2023-03-05T20:55:35.027Z,97438.59
2023-03-05T20:58:03.494Z,97423.41
2023-03-05T21:00:31.889Z,97423.38
2023-03-05T21:03:00.551Z,97429.28
2023-03-05T21:05:31.626Z,97425.94
2023-03-05T21:08:04.476Z,97428.47
2023-03-05T21:10:33.666Z,97429.28
2023-03-05T21:13:03.608Z,97424.22
2023-03-05T21:15:32.815Z,97411.56
2023-03-05T21:18:01.804Z,97424.22
2023-03-05T21:20:31.830Z,97416.59
2023-03-05T21:23:01.772Z,97420.00
2023-03-05T21:25:31.067Z,97414.06
2023-03-05T21:28:02.298Z,97408.19
2023-03-05T21:30:34.619Z,97411.56
2023-03-05T21:33:05.404Z,97415.78
2023-03-05T21:35:34.575Z,97409.00
2023-03-05T21:38:06.876Z,97399.75
2023-03-05T21:40:37.332Z,97408.19
2023-03-05T21:43:05.880Z,97401.44
2023-03-05T21:45:34.203Z,97388.81
2023-03-05T21:48:02.579Z,97395.56
2023-03-05T21:50:33.515Z,97387.13
2023-03-05T21:53:03.920Z,97382.88
2023-03-05T21:55:43.268Z,97378.69
2023-03-05T21:58:11.829Z,97387.13
2023-03-05T22:00:40.471Z,97368.53
2023-03-05T22:03:09.135Z,97375.25
2023-03-05T22:05:37.770Z,97382.03
2023-03-05T22:08:07.838Z,97374.41
2023-03-05T22:10:36.436Z,97373.56
2023-03-05T22:13:12.753Z,97373.59
2023-03-05T22:15:46.468Z,97366.81
2023-03-05T22:18:15.611Z,97359.22
2023-03-05T22:20:44.378Z,97360.06
2023-03-05T22:23:14.946Z,97364.28
2023-03-05T22:25:44.645Z,97355.03
2023-03-05T22:28:14.293Z,97355.03
2023-03-05T22:30:49.041Z,97354.16
2023-03-05T22:33:22.989Z,97350.81
2023-03-05T22:35:52.096Z,97348.25
2023-03-05T22:38:22.542Z,97351.63
2023-03-05T22:40:52.121Z,97344.03
2023-03-05T22:43:21.130Z,97345.72
2023-03-05T22:45:50.118Z,97340.66
2023-03-05T22:48:18.604Z,97330.47
2023-03-05T22:50:46.970Z,97327.94
2023-03-05T22:53:15.263Z,97326.28
2023-03-05T22:55:45.895Z,97330.50
2023-03-05T22:58:14.267Z,97329.69
2023-03-05T23:00:42.749Z,97327.16
2023-03-05T23:03:11.170Z,97322.97
2023-03-05T23:05:40.879Z,97321.25
2023-03-05T23:08:09.496Z,97322.97
2023-03-05T23:10:38.516Z,97314.50
2023-03-05T23:13:09.104Z,97318.72
2023-03-05T23:15:39.868Z,97313.66
2023-03-05T23:18:08.337Z,97316.22
2023-03-05T23:20:38.731Z,97312.00
2023-03-05T23:23:07.102Z,97308.59
2023-03-05T23:25:36.752Z,97306.09
2023-03-05T23:28:07.167Z,97295.97
2023-03-05T23:30:39.554Z,97290.03
2023-03-05T23:33:13.077Z,97302.72
2023-03-05T23:35:44.260Z,97307.78
2023-03-05T23:38:15.346Z,97289.19
2023-03-05T23:40:45.691Z,97283.25
2023-03-05T23:43:15.379Z,97279.88
2023-03-05T23:45:46.482Z,97279.88
2023-03-05T23:48:15.332Z,97275.66
2023-03-05T23:50:45.850Z,97273.13
2023-03-05T23:53:19.893Z,97279.00
2023-03-05T23:55:49.384Z,97278.16
2023-03-05T23:58:19.606Z,97277.28
